sensor_id;sensor_type;location;lat;lon;timestamp;P1;durP1;ratioP1;P2;durP2;ratioP2
20042;SDS011;10182;52.896;6.496;2023-03-23T00:01:02;13.17;;;11.73;;
20042;SDS011;10182;52.896;6.496;2023-03-23T00:06:05;12.03;;;9.87;;
20042;SDS011;10182;52.896;6.496;2023-03-23T00:11:08;13.83;;;10.67;;
20042;SDS011;10182;52.896;6.496;2023-03-23T00:16:11;13.50;;;10.63;;
20042;SDS011;10182;52.896;6.496;2023-03-23T00:21:18;12.87;;;10.20;;
20042;SDS011;10182;52.896;6.496;2023-03-23T00:26:19;12.07;;;9.77;;
20042;SDS011;10182;52.896;6.496;2023-03-23T00:31:22;13.33;;;8.83;;
20042;SDS011;10182;52.896;6.496;2023-03-23T00:36:24;12.60;;;9.30;;
20042;SDS011;10182;52.896;6.496;2023-03-23T00:41:27;13.87;;;8.93;;
20042;SDS011;10182;52.896;6.496;2023-03-23T00:46:30;11.53;;;9.00;;
20042;SDS011;10182;52.896;6.496;2023-03-23T00:51:32;9.87;;;8.03;;
20042;SDS011;10182;52.896;6.496;2023-03-23T00:56:34;10.97;;;7.90;;
20042;SDS011;10182;52.896;6.496;2023-03-23T01:01:37;11.00;;;7.47;;
20042;SDS011;10182;52.896;6.496;2023-03-23T01:06:39;9.20;;;7.00;;
20042;SDS011;10182;52.896;6.496;2023-03-23T01:11:42;11.40;;;6.63;;
20042;SDS011;10182;52.896;6.496;2023-03-23T01:16:46;8.00;;;6.50;;
20042;SDS011;10182;52.896;6.496;2023-03-23T01:21:48;9.67;;;5.40;;
20042;SDS011;10182;52.896;6.496;2023-03-23T01:26:50;6.53;;;5.47;;
20042;SDS011;10182;52.896;6.496;2023-03-23T01:31:53;8.17;;;5.50;;
20042;SDS011;10182;52.896;6.496;2023-03-23T01:36:54;8.53;;;5.40;;
20042;SDS011;10182;52.896;6.496;2023-03-23T01:41:56;5.43;;;4.80;;
20042;SDS011;10182;52.896;6.496;2023-03-23T01:47:00;11.73;;;5.50;;
20042;SDS011;10182;52.896;6.496;2023-03-23T01:52:02;7.13;;;4.87;;
20042;SDS011;10182;52.896;6.496;2023-03-23T01:57:07;10.40;;;5.20;;
20042;SDS011;10182;52.896;6.496;2023-03-23T02:02:15;6.13;;;4.53;;
20042;SDS011;10182;52.896;6.496;2023-03-23T02:07:17;6.80;;;5.23;;
20042;SDS011;10182;52.896;6.496;2023-03-23T02:12:21;7.60;;;4.60;;
20042;SDS011;10182;52.896;6.496;2023-03-23T02:17:25;5.90;;;5.20;;
20042;SDS011;10182;52.896;6.496;2023-03-23T02:22:40;7.27;;;4.70;;
20042;SDS011;10182;52.896;6.496;2023-03-23T02:28:10;10.23;;;4.70;;
20042;SDS011;10182;52.896;6.496;2023-03-23T02:33:32;8.40;;;4.47;;
20042;SDS011;10182;52.896;6.496;2023-03-23T02:38:41;7.73;;;4.17;;
20042;SDS011;10182;52.896;6.496;2023-03-23T02:43:50;7.73;;;4.23;;
20042;SDS011;10182;52.896;6.496;2023-03-23T02:48:55;7.60;;;4.47;;
20042;SDS011;10182;52.896;6.496;2023-03-23T02:54:00;8.17;;;4.40;;
20042;SDS011;10182;52.896;6.496;2023-03-23T02:59:05;5.37;;;3.60;;
20042;SDS011;10182;52.896;6.496;2023-03-23T03:04:09;7.00;;;3.87;;
20042;SDS011;10182;52.896;6.496;2023-03-23T03:09:14;5.13;;;3.50;;
20042;SDS011;10182;52.896;6.496;2023-03-23T03:14:22;7.67;;;3.67;;
20042;SDS011;10182;52.896;6.496;2023-03-23T03:19:32;3.70;;;3.27;;
20042;SDS011;10182;52.896;6.496;2023-03-23T03:24:39;4.80;;;3.73;;
20042;SDS011;10182;52.896;6.496;2023-03-23T03:29:43;4.37;;;3.70;;
20042;SDS011;10182;52.896;6.496;2023-03-23T03:34:49;6.87;;;4.00;;
20042;SDS011;10182;52.896;6.496;2023-03-23T03:39:52;5.17;;;3.80;;
20042;SDS011;10182;52.896;6.496;2023-03-23T03:44:54;4.50;;;3.80;;
20042;SDS011;10182;52.896;6.496;2023-03-23T03:49:57;7.30;;;4.33;;
20042;SDS011;10182;52.896;6.496;2023-03-23T03:54:59;4.30;;;3.90;;
20042;SDS011;10182;52.896;6.496;2023-03-23T04:00:00;4.63;;;4.03;;
20042;SDS011;10182;52.896;6.496;2023-03-23T04:05:14;6.30;;;4.63;;
20042;SDS011;10182;52.896;6.496;2023-03-23T04:10:16;5.13;;;4.20;;
20042;SDS011;10182;52.896;6.496;2023-03-23T04:15:19;7.37;;;4.47;;
20042;SDS011;10182;52.896;6.496;2023-03-23T04:20:22;6.00;;;4.50;;
20042;SDS011;10182;52.896;6.496;2023-03-23T04:25:25;8.30;;;4.80;;
20042;SDS011;10182;52.896;6.496;2023-03-23T04:30:28;8.03;;;5.03;;
20042;SDS011;10182;52.896;6.496;2023-03-23T04:35:33;7.80;;;4.87;;
20042;SDS011;10182;52.896;6.496;2023-03-23T04:40:35;10.30;;;5.50;;
20042;SDS011;10182;52.896;6.496;2023-03-23T04:45:38;9.37;;;5.53;;
20042;SDS011;10182;52.896;6.496;2023-03-23T04:50:42;6.83;;;4.77;;
20042;SDS011;10182;52.896;6.496;2023-03-23T04:55:44;5.80;;;2.80;;
20042;SDS011;10182;52.896;6.496;2023-03-23T05:00:47;4.63;;;2.03;;
20042;SDS011;10182;52.896;6.496;2023-03-23T05:05:50;3.43;;;2.00;;
20042;SDS011;10182;52.896;6.496;2023-03-23T05:10:54;4.03;;;1.80;;
20042;SDS011;10182;52.896;6.496;2023-03-23T05:15:56;4.37;;;2.00;;
20042;SDS011;10182;52.896;6.496;2023-03-23T05:21:00;7.80;;;2.30;;
20042;SDS011;10182;52.896;6.496;2023-03-23T05:26:02;9.30;;;2.60;;
20042;SDS011;10182;52.896;6.496;2023-03-23T05:31:04;10.03;;;3.17;;
20042;SDS011;10182;52.896;6.496;2023-03-23T05:36:08;15.20;;;4.07;;
20042;SDS011;10182;52.896;6.496;2023-03-23T05:41:10;11.17;;;3.40;;
20042;SDS011;10182;52.896;6.496;2023-03-23T05:46:12;10.50;;;3.30;;
20042;SDS011;10182;52.896;6.496;2023-03-23T05:51:16;9.00;;;2.90;;
20042;SDS011;10182;52.896;6.496;2023-03-23T05:56:18;11.87;;;2.93;;
20042;SDS011;10182;52.896;6.496;2023-03-23T06:01:20;12.37;;;3.43;;
20042;SDS011;10182;52.896;6.496;2023-03-23T06:06:24;9.70;;;3.20;;
20042;SDS011;10182;52.896;6.496;2023-03-23T06:11:28;9.67;;;3.30;;
20042;SDS011;10182;52.896;6.496;2023-03-23T06:16:30;9.47;;;2.93;;
20042;SDS011;10182;52.896;6.496;2023-03-23T06:21:35;7.50;;;2.33;;
20042;SDS011;10182;52.896;6.496;2023-03-23T06:26:38;7.07;;;2.77;;
20042;SDS011;10182;52.896;6.496;2023-03-23T06:31:41;9.63;;;2.90;;
20042;SDS011;10182;52.896;6.496;2023-03-23T06:36:47;9.27;;;3.40;;
20042;SDS011;10182;52.896;6.496;2023-03-23T06:41:49;12.47;;;3.77;;
20042;SDS011;10182;52.896;6.496;2023-03-23T06:46:51;17.07;;;4.37;;
20042;SDS011;10182;52.896;6.496;2023-03-23T06:51:54;12.83;;;3.73;;
20042;SDS011;10182;52.896;6.496;2023-03-23T06:56:56;14.37;;;4.50;;
20042;SDS011;10182;52.896;6.496;2023-03-23T07:01:58;22.83;;;5.17;;
20042;SDS011;10182;52.896;6.496;2023-03-23T07:07:01;17.47;;;3.97;;
20042;SDS011;10182;52.896;6.496;2023-03-23T07:12:03;16.90;;;4.53;;
20042;SDS011;10182;52.896;6.496;2023-03-23T07:17:05;16.03;;;4.20;;
20042;SDS011;10182;52.896;6.496;2023-03-23T07:22:09;19.37;;;4.70;;
20042;SDS011;10182;52.896;6.496;2023-03-23T07:27:11;19.83;;;4.67;;
20042;SDS011;10182;52.896;6.496;2023-03-23T07:32:13;18.30;;;3.97;;
20042;SDS011;10182;52.896;6.496;2023-03-23T07:37:16;16.43;;;4.73;;
20042;SDS011;10182;52.896;6.496;2023-03-23T07:42:18;14.43;;;4.40;;
20042;SDS011;10182;52.896;6.496;2023-03-23T07:47:20;15.03;;;3.83;;
20042;SDS011;10182;52.896;6.496;2023-03-23T07:52:23;16.50;;;4.50;;
20042;SDS011;10182;52.896;6.496;2023-03-23T07:57:25;20.10;;;5.27;;
20042;SDS011;10182;52.896;6.496;2023-03-23T08:02:27;17.63;;;5.27;;
20042;SDS011;10182;52.896;6.496;2023-03-23T08:07:33;24.23;;;5.10;;
20042;SDS011;10182;52.896;6.496;2023-03-23T08:12:35;26.00;;;5.80;;
20042;SDS011;10182;52.896;6.496;2023-03-23T08:17:37;27.20;;;5.90;;
20042;SDS011;10182;52.896;6.496;2023-03-23T08:22:40;29.97;;;6.87;;
20042;SDS011;10182;52.896;6.496;2023-03-23T08:27:45;19.57;;;5.63;;
20042;SDS011;10182;52.896;6.496;2023-03-23T08:32:46;20.73;;;5.47;;
20042;SDS011;10182;52.896;6.496;2023-03-23T08:37:51;23.03;;;6.17;;
20042;SDS011;10182;52.896;6.496;2023-03-23T08:42:53;20.93;;;5.83;;
20042;SDS011;10182;52.896;6.496;2023-03-23T08:47:55;23.87;;;5.10;;
20042;SDS011;10182;52.896;6.496;2023-03-23T08:53:00;24.37;;;6.00;;
20042;SDS011;10182;52.896;6.496;2023-03-23T08:58:02;22.27;;;5.30;;
20042;SDS011;10182;52.896;6.496;2023-03-23T09:03:04;31.00;;;5.53;;
20042;SDS011;10182;52.896;6.496;2023-03-23T09:08:08;22.37;;;5.40;;
20042;SDS011;10182;52.896;6.496;2023-03-23T09:13:10;19.33;;;5.50;;
20042;SDS011;10182;52.896;6.496;2023-03-23T09:18:12;24.37;;;5.37;;
20042;SDS011;10182;52.896;6.496;2023-03-23T09:23:15;22.83;;;5.30;;
20042;SDS011;10182;52.896;6.496;2023-03-23T09:28:19;19.63;;;5.10;;
20042;SDS011;10182;52.896;6.496;2023-03-23T09:33:21;18.33;;;4.90;;
20042;SDS011;10182;52.896;6.496;2023-03-23T09:38:24;26.33;;;5.40;;
20042;SDS011;10182;52.896;6.496;2023-03-23T09:43:34;22.90;;;5.00;;
20042;SDS011;10182;52.896;6.496;2023-03-23T09:48:48;22.43;;;5.43;;
20042;SDS011;10182;52.896;6.496;2023-03-23T09:53:54;23.10;;;5.63;;
20042;SDS011;10182;52.896;6.496;2023-03-23T09:59:00;22.43;;;5.27;;
20042;SDS011;10182;52.896;6.496;2023-03-23T10:04:07;20.33;;;5.10;;
20042;SDS011;10182;52.896;6.496;2023-03-23T10:09:16;19.33;;;5.00;;
20042;SDS011;10182;52.896;6.496;2023-03-23T10:14:24;21.47;;;4.90;;
20042;SDS011;10182;52.896;6.496;2023-03-23T10:19:33;23.57;;;5.23;;
20042;SDS011;10182;52.896;6.496;2023-03-23T10:24:43;20.57;;;4.53;;
20042;SDS011;10182;52.896;6.496;2023-03-23T10:29:52;16.60;;;4.33;;
20042;SDS011;10182;52.896;6.496;2023-03-23T10:34:58;15.07;;;4.00;;
20042;SDS011;10182;52.896;6.496;2023-03-23T10:40:06;18.10;;;4.40;;
20042;SDS011;10182;52.896;6.496;2023-03-23T10:45:16;16.77;;;4.40;;
20042;SDS011;10182;52.896;6.496;2023-03-23T10:50:24;20.50;;;4.70;;
20042;SDS011;10182;52.896;6.496;2023-03-23T10:55:38;17.00;;;4.70;;
20042;SDS011;10182;52.896;6.496;2023-03-23T11:00:41;11.03;;;3.83;;
20042;SDS011;10182;52.896;6.496;2023-03-23T11:05:48;11.87;;;3.63;;
20042;SDS011;10182;52.896;6.496;2023-03-23T11:10:54;12.93;;;3.67;;
20042;SDS011;10182;52.896;6.496;2023-03-23T11:15:58;12.77;;;3.63;;
20042;SDS011;10182;52.896;6.496;2023-03-23T11:21:01;14.77;;;3.83;;
20042;SDS011;10182;52.896;6.496;2023-03-23T11:26:09;12.77;;;3.50;;
20042;SDS011;10182;52.896;6.496;2023-03-23T11:31:15;10.73;;;2.83;;
20042;SDS011;10182;52.896;6.496;2023-03-23T11:36:17;9.77;;;3.17;;
20042;SDS011;10182;52.896;6.496;2023-03-23T11:41:21;5.53;;;2.17;;
20042;SDS011;10182;52.896;6.496;2023-03-23T11:46:28;15.93;;;3.87;;
20042;SDS011;10182;52.896;6.496;2023-03-23T11:51:36;9.23;;;2.93;;
20042;SDS011;10182;52.896;6.496;2023-03-23T11:56:44;14.67;;;3.53;;
20042;SDS011;10182;52.896;6.496;2023-03-23T12:01:47;10.93;;;3.30;;
20042;SDS011;10182;52.896;6.496;2023-03-23T12:06:52;12.53;;;3.20;;
20042;SDS011;10182;52.896;6.496;2023-03-23T12:12:07;9.47;;;3.17;;
20042;SDS011;10182;52.896;6.496;2023-03-23T12:17:20;11.77;;;3.00;;
20042;SDS011;10182;52.896;6.496;2023-03-23T12:22:33;13.07;;;3.40;;
20042;SDS011;10182;52.896;6.496;2023-03-23T12:27:47;13.27;;;3.00;;
20042;SDS011;10182;52.896;6.496;2023-03-23T12:32:58;11.57;;;2.80;;
20042;SDS011;10182;52.896;6.496;2023-03-23T12:38:15;13.73;;;3.47;;
20042;SDS011;10182;52.896;6.496;2023-03-23T12:43:28;10.63;;;3.30;;
20042;SDS011;10182;52.896;6.496;2023-03-23T12:48:37;13.03;;;3.37;;
20042;SDS011;10182;52.896;6.496;2023-03-23T12:53:48;17.63;;;4.30;;
20042;SDS011;10182;52.896;6.496;2023-03-23T12:58:58;13.13;;;3.83;;
20042;SDS011;10182;52.896;6.496;2023-03-23T13:04:07;14.33;;;3.73;;
20042;SDS011;10182;52.896;6.496;2023-03-23T13:09:14;17.20;;;3.77;;
20042;SDS011;10182;52.896;6.496;2023-03-23T13:14:26;9.93;;;2.97;;
20042;SDS011;10182;52.896;6.496;2023-03-23T13:19:45;11.17;;;3.13;;
20042;SDS011;10182;52.896;6.496;2023-03-23T13:24:58;9.77;;;2.70;;
20042;SDS011;10182;52.896;6.496;2023-03-23T13:30:05;10.17;;;3.30;;
20042;SDS011;10182;52.896;6.496;2023-03-23T13:35:22;10.07;;;2.50;;
20042;SDS011;10182;52.896;6.496;2023-03-23T13:40:25;12.40;;;3.00;;
20042;SDS011;10182;52.896;6.496;2023-03-23T13:45:42;13.03;;;3.57;;
20042;SDS011;10182;52.896;6.496;2023-03-23T13:50:49;9.40;;;3.30;;
20042;SDS011;10182;52.896;6.496;2023-03-23T13:56:03;15.20;;;3.43;;
20042;SDS011;10182;52.896;6.496;2023-03-23T14:01:12;17.80;;;3.40;;
20042;SDS011;10182;52.896;6.496;2023-03-23T14:06:18;12.63;;;3.90;;
20042;SDS011;10182;52.896;6.496;2023-03-23T14:11:25;12.13;;;3.30;;
20042;SDS011;10182;52.896;6.496;2023-03-23T14:16:37;14.07;;;3.37;;
20042;SDS011;10182;52.896;6.496;2023-03-23T14:21:41;18.70;;;3.80;;
20042;SDS011;10182;52.896;6.496;2023-03-23T14:26:43;14.07;;;3.93;;
20042;SDS011;10182;52.896;6.496;2023-03-23T14:31:48;8.50;;;3.97;;
20042;SDS011;10182;52.896;6.496;2023-03-23T14:36:53;11.50;;;3.97;;
20042;SDS011;10182;52.896;6.496;2023-03-23T14:42:00;11.60;;;3.47;;
20042;SDS011;10182;52.896;6.496;2023-03-23T14:47:06;10.03;;;3.23;;
20042;SDS011;10182;52.896;6.496;2023-03-23T14:52:12;13.23;;;4.07;;
20042;SDS011;10182;52.896;6.496;2023-03-23T14:57:16;14.80;;;3.30;;
20042;SDS011;10182;52.896;6.496;2023-03-23T15:02:22;10.23;;;3.87;;
20042;SDS011;10182;52.896;6.496;2023-03-23T15:07:27;12.33;;;3.10;;
20042;SDS011;10182;52.896;6.496;2023-03-23T15:12:32;10.30;;;3.30;;
20042;SDS011;10182;52.896;6.496;2023-03-23T15:17:36;13.77;;;3.13;;
20042;SDS011;10182;52.896;6.496;2023-03-23T15:22:44;14.90;;;3.50;;
20042;SDS011;10182;52.896;6.496;2023-03-23T15:27:51;12.00;;;2.90;;
20042;SDS011;10182;52.896;6.496;2023-03-23T15:32:59;15.50;;;3.67;;
20042;SDS011;10182;52.896;6.496;2023-03-23T15:38:03;9.97;;;2.93;;
20042;SDS011;10182;52.896;6.496;2023-03-23T15:43:08;9.50;;;2.67;;
20042;SDS011;10182;52.896;6.496;2023-03-23T15:48:18;10.53;;;3.03;;
20042;SDS011;10182;52.896;6.496;2023-03-23T15:53:26;15.60;;;3.57;;
20042;SDS011;10182;52.896;6.496;2023-03-23T15:58:29;12.57;;;3.40;;
20042;SDS011;10182;52.896;6.496;2023-03-23T16:03:35;11.43;;;3.40;;
20042;SDS011;10182;52.896;6.496;2023-03-23T16:08:39;11.70;;;3.50;;
20042;SDS011;10182;52.896;6.496;2023-03-23T16:13:41;17.93;;;3.37;;
20042;SDS011;10182;52.896;6.496;2023-03-23T16:18:44;14.43;;;3.43;;
20042;SDS011;10182;52.896;6.496;2023-03-23T16:23:46;12.40;;;3.50;;
20042;SDS011;10182;52.896;6.496;2023-03-23T16:28:48;9.00;;;3.97;;
20042;SDS011;10182;52.896;6.496;2023-03-23T16:33:51;14.57;;;3.50;;
20042;SDS011;10182;52.896;6.496;2023-03-23T16:38:53;11.10;;;3.57;;
20042;SDS011;10182;52.896;6.496;2023-03-23T16:43:55;12.87;;;3.80;;
20042;SDS011;10182;52.896;6.496;2023-03-23T16:48:58;9.30;;;3.00;;
20042;SDS011;10182;52.896;6.496;2023-03-23T16:54:00;15.87;;;3.60;;
20042;SDS011;10182;52.896;6.496;2023-03-23T16:59:02;12.13;;;3.70;;
20042;SDS011;10182;52.896;6.496;2023-03-23T17:04:05;9.30;;;2.87;;
20042;SDS011;10182;52.896;6.496;2023-03-23T17:09:06;15.60;;;3.53;;
20042;SDS011;10182;52.896;6.496;2023-03-23T17:14:08;9.07;;;2.90;;
20042;SDS011;10182;52.896;6.496;2023-03-23T17:19:12;13.60;;;3.47;;
20042;SDS011;10182;52.896;6.496;2023-03-23T17:24:14;11.43;;;3.93;;
20042;SDS011;10182;52.896;6.496;2023-03-23T17:29:15;9.30;;;2.93;;
20042;SDS011;10182;52.896;6.496;2023-03-23T17:34:19;12.37;;;3.13;;
20042;SDS011;10182;52.896;6.496;2023-03-23T17:39:21;6.50;;;2.37;;
20042;SDS011;10182;52.896;6.496;2023-03-23T17:44:23;9.70;;;2.90;;
20042;SDS011;10182;52.896;6.496;2023-03-23T17:49:26;10.43;;;2.80;;
20042;SDS011;10182;52.896;6.496;2023-03-23T17:54:29;7.83;;;2.40;;
20042;SDS011;10182;52.896;6.496;2023-03-23T17:59:31;8.57;;;2.57;;
20042;SDS011;10182;52.896;6.496;2023-03-23T18:04:34;6.33;;;2.17;;
20042;SDS011;10182;52.896;6.496;2023-03-23T18:09:35;8.03;;;2.47;;
20042;SDS011;10182;52.896;6.496;2023-03-23T18:14:37;9.70;;;2.87;;
20042;SDS011;10182;52.896;6.496;2023-03-23T18:19:40;7.80;;;2.57;;
20042;SDS011;10182;52.896;6.496;2023-03-23T18:24:45;9.63;;;2.53;;
20042;SDS011;10182;52.896;6.496;2023-03-23T18:29:47;5.70;;;2.90;;
20042;SDS011;10182;52.896;6.496;2023-03-23T18:34:50;11.47;;;3.10;;
20042;SDS011;10182;52.896;6.496;2023-03-23T18:39:52;11.70;;;3.50;;
20042;SDS011;10182;52.896;6.496;2023-03-23T18:44:54;7.20;;;4.07;;
20042;SDS011;10182;52.896;6.496;2023-03-23T18:49:57;7.90;;;3.37;;
20042;SDS011;10182;52.896;6.496;2023-03-23T18:54:59;9.80;;;4.37;;
20042;SDS011;10182;52.896;6.496;2023-03-23T19:00:00;12.97;;;5.77;;
20042;SDS011;10182;52.896;6.496;2023-03-23T19:05:05;8.93;;;3.30;;
20042;SDS011;10182;52.896;6.496;2023-03-23T19:10:08;10.43;;;3.60;;
20042;SDS011;10182;52.896;6.496;2023-03-23T19:15:09;11.70;;;4.43;;
20042;SDS011;10182;52.896;6.496;2023-03-23T19:20:12;6.67;;;3.43;;
20042;SDS011;10182;52.896;6.496;2023-03-23T19:25:14;7.57;;;3.63;;
20042;SDS011;10182;52.896;6.496;2023-03-23T19:30:16;7.23;;;3.80;;
20042;SDS011;10182;52.896;6.496;2023-03-23T19:35:20;9.83;;;4.27;;
20042;SDS011;10182;52.896;6.496;2023-03-23T19:40:21;14.80;;;5.10;;
20042;SDS011;10182;52.896;6.496;2023-03-23T19:45:23;8.57;;;4.17;;
20042;SDS011;10182;52.896;6.496;2023-03-23T19:50:29;7.60;;;4.30;;
20042;SDS011;10182;52.896;6.496;2023-03-23T19:55:32;10.63;;;4.10;;
20042;SDS011;10182;52.896;6.496;2023-03-23T20:00:33;9.97;;;4.17;;
20042;SDS011;10182;52.896;6.496;2023-03-23T20:05:36;10.47;;;4.57;;
20042;SDS011;10182;52.896;6.496;2023-03-23T20:10:38;10.47;;;4.70;;
20042;SDS011;10182;52.896;6.496;2023-03-23T20:15:40;8.40;;;3.83;;
20042;SDS011;10182;52.896;6.496;2023-03-23T20:20:43;10.43;;;4.77;;
20042;SDS011;10182;52.896;6.496;2023-03-23T20:25:45;9.60;;;4.23;;
20042;SDS011;10182;52.896;6.496;2023-03-23T20:30:47;8.13;;;4.20;;
20042;SDS011;10182;52.896;6.496;2023-03-23T20:35:50;13.03;;;4.87;;
20042;SDS011;10182;52.896;6.496;2023-03-23T20:40:52;11.67;;;4.90;;
20042;SDS011;10182;52.896;6.496;2023-03-23T20:45:56;10.00;;;5.57;;
20042;SDS011;10182;52.896;6.496;2023-03-23T20:51:00;14.83;;;6.07;;
20042;SDS011;10182;52.896;6.496;2023-03-23T20:56:03;11.27;;;4.90;;
20042;SDS011;10182;52.896;6.496;2023-03-23T21:01:06;11.53;;;5.60;;
20042;SDS011;10182;52.896;6.496;2023-03-23T21:06:09;8.57;;;5.27;;
20042;SDS011;10182;52.896;6.496;2023-03-23T21:11:12;12.70;;;6.00;;
20042;SDS011;10182;52.896;6.496;2023-03-23T21:16:18;11.30;;;6.00;;
20042;SDS011;10182;52.896;6.496;2023-03-23T21:21:23;14.67;;;6.50;;
20042;SDS011;10182;52.896;6.496;2023-03-23T21:26:26;15.87;;;7.50;;
20042;SDS011;10182;52.896;6.496;2023-03-23T21:31:29;15.20;;;7.23;;
20042;SDS011;10182;52.896;6.496;2023-03-23T21:36:35;10.17;;;6.33;;
20042;SDS011;10182;52.896;6.496;2023-03-23T21:41:37;12.07;;;6.20;;
20042;SDS011;10182;52.896;6.496;2023-03-23T21:46:39;13.40;;;7.03;;
20042;SDS011;10182;52.896;6.496;2023-03-23T21:51:43;12.17;;;6.00;;
20042;SDS011;10182;52.896;6.496;2023-03-23T21:56:47;11.93;;;6.23;;
20042;SDS011;10182;52.896;6.496;2023-03-23T22:01:49;12.80;;;6.90;;
20042;SDS011;10182;52.896;6.496;2023-03-23T22:06:53;11.30;;;6.33;;
20042;SDS011;10182;52.896;6.496;2023-03-23T22:11:55;11.30;;;6.10;;
20042;SDS011;10182;52.896;6.496;2023-03-23T22:16:57;16.37;;;6.27;;
20042;SDS011;10182;52.896;6.496;2023-03-23T22:22:01;10.00;;;5.73;;
20042;SDS011;10182;52.896;6.496;2023-03-23T22:27:03;11.63;;;5.97;;
20042;SDS011;10182;52.896;6.496;2023-03-23T22:32:05;10.30;;;5.43;;
20042;SDS011;10182;52.896;6.496;2023-03-23T22:37:08;9.63;;;5.27;;
20042;SDS011;10182;52.896;6.496;2023-03-23T22:42:10;12.37;;;6.37;;
20042;SDS011;10182;52.896;6.496;2023-03-23T22:47:12;14.73;;;5.40;;
20042;SDS011;10182;52.896;6.496;2023-03-23T22:52:16;11.17;;;6.30;;
20042;SDS011;10182;52.896;6.496;2023-03-23T22:57:17;10.70;;;6.07;;
20042;SDS011;10182;52.896;6.496;2023-03-23T23:02:19;12.53;;;6.37;;
20042;SDS011;10182;52.896;6.496;2023-03-23T23:07:22;8.83;;;5.77;;
20042;SDS011;10182;52.896;6.496;2023-03-23T23:12:24;12.30;;;6.47;;
20042;SDS011;10182;52.896;6.496;2023-03-23T23:17:28;9.00;;;4.93;;
20042;SDS011;10182;52.896;6.496;2023-03-23T23:22:32;11.80;;;5.37;;
20042;SDS011;10182;52.896;6.496;2023-03-23T23:27:34;13.33;;;5.80;;
20042;SDS011;10182;52.896;6.496;2023-03-23T23:32:36;10.43;;;5.60;;
20042;SDS011;10182;52.896;6.496;2023-03-23T23:37:39;11.60;;;5.27;;
20042;SDS011;10182;52.896;6.496;2023-03-23T23:42:41;7.37;;;5.10;;
20042;SDS011;10182;52.896;6.496;2023-03-23T23:47:44;11.30;;;5.40;;
20042;SDS011;10182;52.896;6.496;2023-03-23T23:52:47;8.07;;;5.57;;
20042;SDS011;10182;52.896;6.496;2023-03-23T23:57:49;11.20;;;5.23;;
